メインページ
METAR-TAF:

METAR-TAF

空港 :

但馬飛行場

但馬空港, 日本

緯度: 35-31N, 経度: 134-48E, 海抜: 210m

現時点の気象観測

当レポートは3時間6分前の09:00(UTC)に作成
の風 6kt
気温 14°C
湿度 77%
気圧 1020 hPa
視程10km以上
高度2000ftの雲はほとんどない
高度3000ftの雲は散在している
千切れ雲あり

METAR: RJBT 200900Z 36006KT 9999 FEW020 SCT030 BKN/// 14/10 Q1020

時間: 21:06 (12:06 UTC)


TAF: 見つかりません

4,000以上の空港の気象観測と天気予報(METAR報とTAF報)

利用可能な観測所は地図上に黄色い丸と赤い丸で示す。

丸の上にカーソルを重ねると観測所名を参照できる。

次にクリックすると気象観測と天気予報を参照できる。

マップの切り替え:黒色「×」印の緑ボタンをクリックして拡大、「-」印の緑ボタンをクリックして縮小、緑色の三角印をクリックして隣りの地図に切り替え


METAR-TAF: